createdAt,value
2023-04-30T00:01:51.499Z,98610.03
2023-04-30T00:05:07.907Z,98615.95
2023-04-30T00:08:24.280Z,98621.10
2023-04-30T00:11:40.579Z,98607.17
2023-04-30T00:14:57.238Z,98615.14
2023-04-30T00:18:13.612Z,98618.04
2023-04-30T00:21:30.650Z,98618.24
2023-04-30T00:24:46.918Z,98617.40
2023-04-30T00:28:03.265Z,98621.10
2023-04-30T00:31:19.600Z,98620.26
2023-04-30T00:34:36.030Z,98621.10
2023-04-30T00:37:53.397Z,98621.88
2023-04-30T00:41:10.416Z,98622.44
2023-04-30T00:44:26.946Z,98612.86
2023-04-30T00:47:43.398Z,98626.14
2023-04-30T00:50:59.705Z,98623.92
2023-04-30T00:54:17.347Z,98631.73
2023-04-30T00:57:36.086Z,98634.12
2023-04-30T01:00:53.198Z,98632.30
2023-04-30T01:04:09.624Z,98634.12
2023-04-30T01:07:26.114Z,98635.16
2023-04-30T01:10:49.453Z,98630.45
2023-04-30T01:14:13.106Z,98630.85
2023-04-30T01:17:36.750Z,98626.98
2023-04-30T01:20:58.625Z,98626.78
2023-04-30T01:24:33.038Z,98628.80
2023-04-30T01:28:16.485Z,98624.70
2023-04-30T01:31:36.163Z,98632.67
2023-04-30T01:34:52.719Z,98631.98
2023-04-30T01:38:16.362Z,98629.97
2023-04-30T01:41:39.585Z,98637.13
2023-04-30T01:45:27.269Z,98641.41
2023-04-30T01:48:53.223Z,98639.79
2023-04-30T01:52:18.031Z,98642.25
2023-04-30T01:55:40.862Z,98643.26
2023-04-30T01:59:00.990Z,98643.89
2023-04-30T02:02:17.404Z,98646.11
2023-04-30T02:05:34.459Z,98653.44
2023-04-30T02:08:50.801Z,98644.22
2023-04-30T02:12:07.284Z,98651.35
2023-04-30T02:15:24.078Z,98644.39
2023-04-30T02:18:41.878Z,98647.84
2023-04-30T02:21:58.152Z,98649.02
2023-04-30T02:25:16.138Z,98643.86
2023-04-30T02:28:32.428Z,98648.72
2023-04-30T02:31:48.733Z,98655.09
2023-04-30T02:35:05.432Z,98658.70
2023-04-30T02:38:22.622Z,98663.84
2023-04-30T02:41:40.148Z,98663.01
2023-04-30T02:44:56.713Z,98669.77
2023-04-30T02:48:13.462Z,98661.19
2023-04-30T02:51:29.698Z,98666.91
2023-04-30T02:54:46.026Z,98669.77
2023-04-30T02:58:04.287Z,98675.92
2023-04-30T03:01:21.040Z,98684.05
2023-04-30T03:04:37.377Z,98678.74
2023-04-30T03:07:53.906Z,98684.25
2023-04-30T03:11:10.663Z,98686.70
2023-04-30T03:14:28.205Z,98685.25
2023-04-30T03:17:46.298Z,98681.39
2023-04-30T03:21:02.965Z,98695.12
2023-04-30T03:24:19.329Z,98687.16
2023-04-30T03:27:35.757Z,98692.47
2023-04-30T03:30:52.553Z,98695.71
2023-04-30T03:34:08.903Z,98697.92
2023-04-30T03:37:25.187Z,98692.22
2023-04-30T03:40:41.819Z,98698.98
2023-04-30T03:43:58.253Z,98705.74
2023-04-30T03:47:14.670Z,98705.74
2023-04-30T03:50:31.549Z,98717.37
2023-04-30T03:53:47.875Z,98718.57
2023-04-30T03:57:05.386Z,98725.92
2023-04-30T04:00:25.208Z,98725.53
2023-04-30T04:03:42.774Z,98737.16
2023-04-30T04:06:59.381Z,98733.25
2023-04-30T04:10:17.344Z,98735.91
2023-04-30T04:13:34.240Z,98745.06
2023-04-30T04:16:53.173Z,98747.66
2023-04-30T04:20:13.768Z,98755.98
2023-04-30T04:23:29.920Z,98755.63
2023-04-30T04:26:48.036Z,98758.08
2023-04-30T04:30:04.851Z,98761.94
2023-04-30T04:33:21.360Z,98761.09
2023-04-30T04:36:39.843Z,98774.20
2023-04-30T04:39:56.333Z,98780.52
2023-04-30T04:43:13.414Z,98778.06
2023-04-30T04:46:30.800Z,98781.27
2023-04-30T04:49:47.178Z,98789.84
2023-04-30T04:53:03.869Z,98797.65
2023-04-30T04:56:20.206Z,98800.11
2023-04-30T04:59:36.666Z,98804.96
2023-04-30T05:02:55.170Z,98810.20
2023-04-30T05:06:14.223Z,98817.97
2023-04-30T05:09:31.091Z,98824.73
2023-04-30T05:12:47.500Z,98835.36
2023-04-30T05:16:03.906Z,98847.17
2023-04-30T05:19:20.463Z,98838.29
2023-04-30T05:22:37.126Z,98849.72
2023-04-30T05:25:56.302Z,98849.28
2023-04-30T05:29:13.116Z,98855.33
2023-04-30T05:32:30.364Z,98858.52
2023-04-30T05:35:47.036Z,98861.36
2023-04-30T05:39:03.548Z,98870.32
2023-04-30T05:42:20.014Z,98877.28
2023-04-30T05:45:36.490Z,98881.84
2023-04-30T05:48:54.532Z,98895.92
2023-04-30T05:52:12.970Z,98909.09
2023-04-30T05:55:29.442Z,98917.87
2023-04-30T05:58:46.645Z,98924.55
2023-04-30T06:02:03.094Z,98932.22
2023-04-30T06:05:20.016Z,98935.59
2023-04-30T06:08:36.813Z,98936.11
2023-04-30T06:11:53.756Z,98940.94
2023-04-30T06:15:11.104Z,98940.61
2023-04-30T06:18:27.367Z,98948.91
2023-04-30T06:21:44.900Z,98956.47
2023-04-30T06:25:01.412Z,98967.08
2023-04-30T06:28:17.934Z,98965.02
2023-04-30T06:31:34.630Z,98973.59
2023-04-30T06:34:51.219Z,98977.91
2023-04-30T06:38:07.561Z,98977.82
2023-04-30T06:41:24.120Z,98983.78
2023-04-30T06:44:40.560Z,98982.76
2023-04-30T06:47:57.633Z,98988.78
2023-04-30T06:51:14.736Z,98994.08
2023-04-30T06:54:31.808Z,98995.70
2023-04-30T06:57:48.210Z,99001.22
2023-04-30T07:01:04.554Z,99000.52
2023-04-30T07:04:21.781Z,99011.79
2023-04-30T07:07:38.148Z,99003.66
2023-04-30T07:10:54.467Z,99022.06
2023-04-30T07:14:10.893Z,99021.88
2023-04-30T07:17:27.840Z,99020.70
2023-04-30T07:20:53.510Z,99023.87
2023-04-30T07:24:10.961Z,99026.03
2023-04-30T07:27:27.417Z,99028.48
2023-04-30T07:30:56.617Z,99033.30
2023-04-30T07:34:18.214Z,99031.61
2023-04-30T07:37:40.472Z,99033.94
2023-04-30T07:40:56.432Z,99032.88
2023-04-30T07:44:14.320Z,99040.65
2023-04-30T07:47:32.173Z,99050.44
2023-04-30T07:50:50.598Z,99045.14
2023-04-30T07:54:08.333Z,99052.91
2023-04-30T07:57:27.197Z,99054.87
2023-04-30T08:00:43.987Z,99056.45
2023-04-30T08:04:03.704Z,99059.48
2023-04-30T08:07:22.078Z,99059.83
2023-04-30T08:10:50.055Z,99057.06
2023-04-30T08:17:36.539Z,99067.95
2023-04-30T08:21:20.754Z,99070.49
2023-04-30T08:24:51.684Z,99068.58
2023-04-30T08:28:23.274Z,99071.75
2023-04-30T08:31:45.818Z,99069.74
2023-04-30T08:35:03.518Z,99069.38
2023-04-30T08:38:21.729Z,99073.50
2023-04-30T08:41:41.987Z,99079.58
2023-04-30T08:45:21.277Z,99080.01
2023-04-30T08:48:49.545Z,99087.29
2023-04-30T08:52:18.710Z,99088.06
2023-04-30T08:55:42.011Z,99093.20
2023-04-30T08:59:01.011Z,99086.48
2023-04-30T09:02:19.988Z,99095.72
2023-04-30T09:05:36.914Z,99108.13
2023-04-30T09:08:55.940Z,99108.52
2023-04-30T09:12:34.191Z,99109.27
2023-04-30T09:15:51.547Z,99115.66
2023-04-30T09:19:08.362Z,99105.09
2023-04-30T09:22:31.929Z,99111.92
2023-04-30T09:25:51.952Z,99114.53
2023-04-30T09:29:11.290Z,99110.70
2023-04-30T09:32:27.644Z,99116.08
2023-04-30T09:35:45.830Z,99111.30
2023-04-30T09:39:02.214Z,99103.55
2023-04-30T09:42:19.646Z,99121.61
2023-04-30T09:45:48.701Z,99110.66
2023-04-30T09:49:06.094Z,99112.83
2023-04-30T09:52:24.188Z,99105.86
2023-04-30T09:55:42.477Z,99111.08
2023-04-30T09:59:03.408Z,99107.04
2023-04-30T10:02:24.319Z,99094.09
2023-04-30T10:06:00.693Z,99092.09
2023-04-30T10:09:20.235Z,99089.98
2023-04-30T10:12:43.878Z,99096.02
2023-04-30T10:16:05.066Z,99095.41
2023-04-30T10:19:27.853Z,99095.05
2023-04-30T10:22:48.056Z,99090.50
2023-04-30T10:26:05.748Z,99088.43
2023-04-30T10:29:24.260Z,99091.94
2023-04-30T10:32:44.948Z,99088.14
2023-04-30T10:36:05.444Z,99093.00
2023-04-30T10:39:22.917Z,99093.01
2023-04-30T10:42:43.598Z,99088.69
2023-04-30T10:46:00.567Z,99085.69
2023-04-30T10:49:20.766Z,99087.26
2023-04-30T10:52:39.279Z,99089.44
2023-04-30T10:56:05.844Z,99085.69
2023-04-30T10:59:23.249Z,99082.75
2023-04-30T11:02:51.515Z,99079.59
2023-04-30T11:06:10.601Z,99084.22
2023-04-30T11:09:25.085Z,99082.09
2023-04-30T11:12:41.566Z,99081.89
2023-04-30T11:15:59.182Z,99073.11
2023-04-30T11:19:21.927Z,99079.74
2023-04-30T11:22:43.404Z,99080.67
2023-04-30T11:26:04.628Z,99075.26
2023-04-30T11:29:23.405Z,99071.73
2023-04-30T11:32:48.633Z,99072.84
2023-04-30T11:36:18.653Z,99066.12
2023-04-30T11:39:43.695Z,99076.31
2023-04-30T11:43:01.558Z,99071.20
2023-04-30T11:46:23.127Z,99075.02
2023-04-30T11:49:39.993Z,99069.29
2023-04-30T11:53:02.880Z,99074.38
2023-04-30T11:56:20.489Z,99074.98
2023-04-30T11:59:37.801Z,99076.66
2023-04-30T12:02:56.313Z,99073.97
2023-04-30T12:06:19.204Z,99069.00
2023-04-30T12:09:35.631Z,99071.29
2023-04-30T12:12:54.038Z,99075.08
2023-04-30T12:16:11.619Z,99075.08
2023-04-30T12:19:31.706Z,99068.33
2023-04-30T12:22:48.628Z,99076.10
2023-04-30T12:26:08.923Z,99064.55
2023-04-30T12:29:27.884Z,99065.76
2023-04-30T12:32:50.758Z,99063.88
2023-04-30T12:36:11.798Z,99061.20
2023-04-30T12:39:28.193Z,99056.26
2023-04-30T12:42:47.973Z,99059.73
2023-04-30T12:46:05.494Z,99055.63
2023-04-30T12:49:33.173Z,99052.55
2023-04-30T12:52:52.274Z,99051.76
2023-04-30T12:56:20.575Z,99055.45
2023-04-30T12:59:37.954Z,99050.32
2023-04-30T13:02:56.806Z,99047.25
2023-04-30T13:06:15.195Z,99040.28
2023-04-30T13:09:32.170Z,99047.92
2023-04-30T13:12:48.898Z,99054.70
2023-04-30T13:16:07.387Z,99042.56
2023-04-30T13:19:26.911Z,99046.96
2023-04-30T13:22:43.350Z,99045.09
2023-04-30T13:25:59.889Z,99039.99
2023-04-30T13:29:18.317Z,99053.55
2023-04-30T13:32:37.669Z,99030.31
2023-04-30T13:35:54.124Z,99035.05
2023-04-30T13:39:10.757Z,99036.91
2023-04-30T13:42:27.590Z,99034.83
2023-04-30T13:45:44.359Z,99031.75
2023-04-30T13:49:16.164Z,99046.14
2023-04-30T13:52:25.852Z,99029.29
2023-04-30T13:55:42.545Z,99032.18
2023-04-30T13:58:58.907Z,99023.13
2023-04-30T14:02:15.345Z,99028.72
2023-04-30T14:05:32.145Z,99029.33
2023-04-30T14:08:51.466Z,99037.56
2023-04-30T14:12:07.893Z,99034.28
2023-04-30T14:15:25.454Z,99028.94
2023-04-30T14:18:41.943Z,99029.34
2023-04-30T14:21:58.353Z,99027.91
2023-04-30T14:25:17.488Z,99025.25
2023-04-30T14:28:31.705Z,99032.66
2023-04-30T14:31:47.828Z,99044.97
2023-04-30T14:35:04.604Z,99037.38
2023-04-30T14:38:21.633Z,99032.64
2023-04-30T14:41:41.780Z,99032.22
2023-04-30T14:44:58.387Z,99030.99
2023-04-30T14:48:15.677Z,99029.36
2023-04-30T14:51:33.220Z,99039.42
2023-04-30T14:54:49.836Z,99041.69
2023-04-30T14:58:06.475Z,99045.59
2023-04-30T15:01:23.327Z,99049.06
2023-04-30T15:04:39.888Z,99046.58
2023-04-30T15:07:56.345Z,99047.81
2023-04-30T15:11:14.191Z,99040.40
2023-04-30T15:14:30.866Z,99043.70
2023-04-30T15:17:47.716Z,99038.18
2023-04-30T15:21:05.659Z,99032.20
2023-04-30T15:24:24.145Z,99037.76
2023-04-30T15:27:42.157Z,99039.80
2023-04-30T15:30:59.687Z,99038.36
2023-04-30T15:34:19.801Z,99040.82
2023-04-30T15:37:38.182Z,99039.52
2023-04-30T15:40:55.332Z,99045.23
2023-04-30T15:44:12.072Z,99051.42
2023-04-30T15:47:29.064Z,99050.36
2023-04-30T15:50:50.917Z,99045.19
2023-04-30T15:54:08.370Z,99053.02
2023-04-30T15:57:27.292Z,99043.95
2023-04-30T16:00:44.186Z,99049.92
2023-04-30T16:04:01.442Z,99057.50
2023-04-30T16:07:19.796Z,99055.41
2023-04-30T16:10:37.431Z,99058.88
2023-04-30T16:13:56.013Z,99053.33
2023-04-30T16:17:13.176Z,99057.00
2023-04-30T16:20:30.240Z,99053.48
2023-04-30T16:23:47.912Z,99060.82
2023-04-30T16:27:04.482Z,99060.39
2023-04-30T16:30:21.909Z,99058.34
2023-04-30T16:33:40.827Z,99069.34
2023-04-30T16:37:00.574Z,99076.70
2023-04-30T16:40:20.533Z,99077.69
2023-04-30T16:43:38.618Z,99075.42
2023-04-30T16:46:57.047Z,99080.69
2023-04-30T16:50:16.358Z,99075.56
2023-04-30T16:53:32.788Z,99074.48
2023-04-30T16:56:49.568Z,99078.56
2023-04-30T17:00:07.387Z,99082.73
2023-04-30T17:03:25.198Z,99086.81
2023-04-30T17:06:44.383Z,99091.50
2023-04-30T17:10:04.632Z,99091.97
2023-04-30T17:13:23.353Z,99093.78
2023-04-30T17:16:51.575Z,99093.29
2023-04-30T17:20:13.244Z,99094.09
2023-04-30T17:23:32.954Z,99104.23
2023-04-30T17:26:51.673Z,99092.94
2023-04-30T17:30:21.160Z,99098.91
2023-04-30T17:33:34.748Z,99104.39
2023-04-30T17:36:54.523Z,99110.47
2023-04-30T17:40:16.502Z,99120.87
2023-04-30T17:43:33.118Z,99123.45
2023-04-30T17:46:55.370Z,99117.33
2023-04-30T17:50:16.003Z,99126.13
2023-04-30T17:53:33.630Z,99122.35
2023-04-30T17:56:50.393Z,99129.75
2023-04-30T18:00:08.176Z,99129.81
2023-04-30T18:03:32.213Z,99132.63
2023-04-30T18:06:48.932Z,99134.63
2023-04-30T18:10:05.683Z,99126.28
2023-04-30T18:13:22.337Z,99134.03
2023-04-30T18:16:39.387Z,99135.88
2023-04-30T18:19:58.157Z,99135.53
2023-04-30T18:23:16.971Z,99134.91
2023-04-30T18:26:35.574Z,99143.94
2023-04-30T18:29:53.356Z,99151.13
2023-04-30T18:33:12.334Z,99155.29
2023-04-30T18:36:29.211Z,99163.70
2023-04-30T18:39:49.079Z,99165.50
2023-04-30T18:43:08.069Z,99169.16
2023-04-30T18:46:24.918Z,99166.88
2023-04-30T18:49:55.241Z,99175.70
2023-04-30T18:53:17.767Z,99176.05
2023-04-30T18:56:38.142Z,99166.43
2023-04-30T18:59:54.845Z,99174.75
2023-04-30T19:03:12.594Z,99175.42
2023-04-30T19:06:29.141Z,99182.73
2023-04-30T19:09:46.170Z,99187.55
2023-04-30T19:13:03.067Z,99187.73
2023-04-30T19:16:19.588Z,99191.03
2023-04-30T19:19:36.096Z,99187.56
2023-04-30T19:23:01.295Z,99188.73
2023-04-30T19:26:17.712Z,99194.69
2023-04-30T19:29:34.201Z,99193.19
2023-04-30T19:32:50.844Z,99197.15
2023-04-30T19:36:07.418Z,99203.92
2023-04-30T19:39:24.606Z,99197.47
2023-04-30T19:42:41.200Z,99211.80
2023-04-30T19:46:03.148Z,99208.98
2023-04-30T19:49:19.679Z,99203.01
2023-04-30T19:52:36.593Z,99209.07
2023-04-30T19:55:54.316Z,99209.70
2023-04-30T19:59:10.876Z,99222.93
2023-04-30T20:02:33.294Z,99215.09
2023-04-30T20:05:59.783Z,99217.98
2023-04-30T20:09:18.664Z,99215.51
2023-04-30T20:12:35.131Z,99219.34
2023-04-30T20:15:53.733Z,99230.08
2023-04-30T20:19:10.679Z,99218.30
2023-04-30T20:22:28.519Z,99222.17
2023-04-30T20:25:46.045Z,99226.44
2023-04-30T20:29:03.470Z,99224.16
2023-04-30T20:32:20.002Z,99227.55
2023-04-30T20:35:44.127Z,99223.28
2023-04-30T20:39:05.186Z,99227.88
2023-04-30T20:42:22.306Z,99235.22
2023-04-30T20:45:38.875Z,99226.84
2023-04-30T20:48:58.815Z,99231.07
2023-04-30T20:52:16.181Z,99226.02
2023-04-30T20:55:32.672Z,99230.92
2023-04-30T20:58:49.542Z,99236.33
2023-04-30T21:02:06.039Z,99236.17
2023-04-30T21:05:25.323Z,99222.00
2023-04-30T21:08:41.893Z,99233.44
2023-04-30T21:12:01.182Z,99230.57
2023-04-30T21:15:20.056Z,99240.30
2023-04-30T21:18:36.526Z,99239.38
2023-04-30T21:21:53.966Z,99239.92
2023-04-30T21:25:14.046Z,99245.70
2023-04-30T21:28:30.365Z,99240.83
2023-04-30T21:31:49.371Z,99246.02
2023-04-30T21:35:05.801Z,99254.23
2023-04-30T21:38:22.379Z,99257.73
2023-04-30T21:41:38.732Z,99260.63
2023-04-30T21:44:55.953Z,99258.05
2023-04-30T21:48:15.444Z,99263.32
2023-04-30T21:51:31.797Z,99267.52
2023-04-30T21:54:48.899Z,99268.64
2023-04-30T21:58:05.379Z,99267.81
2023-04-30T22:01:23.575Z,99269.07
2023-04-30T22:04:39.968Z,99278.36
2023-04-30T22:07:56.388Z,99276.27
2023-04-30T22:11:13.174Z,99277.36
2023-04-30T22:14:29.471Z,99275.98
2023-04-30T22:17:48.559Z,99277.80
2023-04-30T22:21:05.557Z,99279.59
2023-04-30T22:24:22.049Z,99291.64
2023-04-30T22:27:38.611Z,99279.18
2023-04-30T22:30:55.138Z,99284.44
2023-04-30T22:34:13.491Z,99285.70
2023-04-30T22:37:32.688Z,99279.88
2023-04-30T22:40:49.556Z,99291.37
2023-04-30T22:44:06.169Z,99294.55
2023-04-30T22:47:23.089Z,99285.55
2023-04-30T22:50:40.211Z,99291.64
2023-04-30T22:53:57.360Z,99292.48
2023-04-30T22:57:13.792Z,99292.77
2023-04-30T23:00:31.439Z,99296.49
2023-04-30T23:03:51.283Z,99297.31
2023-04-30T23:07:07.712Z,99296.89
2023-04-30T23:10:24.697Z,99294.80
2023-04-30T23:13:42.320Z,99297.83
2023-04-30T23:16:58.784Z,99295.77
2023-04-30T23:20:17.844Z,99294.09
2023-04-30T23:23:35.237Z,99293.14
2023-04-30T23:26:52.254Z,99300.02
2023-04-30T23:30:08.491Z,99299.02
2023-04-30T23:33:25.713Z,99299.59
2023-04-30T23:36:42.368Z,99308.05
2023-04-30T23:39:59.152Z,99295.30
2023-04-30T23:43:15.878Z,99299.56
2023-04-30T23:46:32.118Z,99295.80
2023-04-30T23:49:48.688Z,99310.04
2023-04-30T23:53:04.981Z,99299.66
2023-04-30T23:56:21.411Z,99307.26
2023-04-30T23:59:38.344Z,99309.18
